Autopride — CQQE — position and weather

sailwx.info

Track history (hours):
 
Tides and Currents Weather Stations Pressure Air Temp Water Temp Dewpoint Dewpoint Depression Visibility Wind Speed Wind Dir Waves Ship Positions

Autopride

Last reported at 2015-Jan-31 11:10 UTC. Time now 2015-Jan-31 19:15 UTC.
Position N 43°19' W 001°54'.

Length 125 m; draft 4.7 m.

Type: Cargo ship. MMSI: 255801560.

Date/timePositionNaut miles runAvg speedWind from/ knotsBaromVisibWave heightAir tempDewpointWater temp
2015-Jan-31 11:10N 43°19' W 001°54'2 3.3
2015-Jan-31 10:32N 43°21' W 001°56'45515.7
2015-Jan-30 05:32N 50°28' W 005°45'1010.2
2015-Jan-30 04:33N 50°34' W 005°33'9 9.2
2015-Jan-30 03:33N 50°40' W 005°22'9 8.7
2015-Jan-30 02:33N 50°45' W 005°11'76 9.3
2015-Jan-29 18:25N 51°21' W 003°24'1315.5
2015-Jan-29 17:34N 51°24' W 003°04'1414.1
2015-Jan-29 16:33N 51°30' W 002°43'0 0.4
2015-Jan-29 15:27N 51°30' W 002°43'0 0.0
2015-Jan-29 14:33N 51°30' W 002°43'0 0.0
2015-Jan-29 13:33N 51°30' W 002°43'0 0.0
2015-Jan-29 12:33N 51°30' W 002°43'0 0.0
2015-Jan-29 11:33N 51°30' W 002°43'0 0.0
2015-Jan-29 10:33N 51°30' W 002°43'0 0.0
2015-Jan-29 09:33N 51°30' W 002°43'0 0.0
2015-Jan-29 08:33N 51°30' W 002°43'0 0.0
2015-Jan-29 07:33N 51°30' W 002°43'0 0.0
2015-Jan-29 06:33N 51°30' W 002°43'0 0.0
2015-Jan-29 05:32N 51°30' W 002°43'0 0.0
2015-Jan-29 04:32N 51°30' W 002°43'0 0.0
2015-Jan-29 03:32N 51°30' W 002°43'0 0.0
2015-Jan-29 02:32N 51°30' W 002°43'0 0.0
2015-Jan-29 01:34N 51°30' W 002°43'0 0.0
2015-Jan-29 00:34N 51°30' W 002°43'0 0.0
2015-Jan-28 23:34N 51°30' W 002°43'1 1.0
2015-Jan-28 22:34N 51°30' W 002°44'1515.2
2015-Jan-28 21:33N 51°23' W 003°05'1413.4
2015-Jan-28 20:33N 51°20' W 003°26'79 7.9
2015-Jan-28 10:33N 50°40' W 005°15'8 8.3
2015-Jan-28 09:33N 50°35' W 005°25'9 8.7
2015-Jan-28 08:33N 50°30' W 005°35'44010.7
2015-Jan-26 15:31N 43°33' W 002°06'1111.8
2015-Jan-26 14:33N 43°24' W 001°58'3 0.1
2015-Jan-25 14:18N 43°21' W 001°56'6 7.2
2015-Jan-25 13:31N 43°26' W 002°00'  
2015-Jan-23 07:33N 50°29' W 005°44'8 7.9
2015-Jan-23 06:33N 50°34' W 005°34'8 7.7
2015-Jan-23 05:33N 50°39' W 005°25'8 7.6
2015-Jan-23 04:33N 50°43' W 005°15'8 8.1
2015-Jan-23 03:33N 50°48' W 005°06'7111.1
2015-Jan-22 21:09N 51°20' W 003°25'610.2
2015-Jan-22 20:33N 51°21' W 003°15'1111.1
2015-Jan-22 19:33N 51°27' W 002°60'1110.6
2015-Jan-22 18:32N 51°30' W 002°43'0 0.4
2015-Jan-22 17:32N 51°30' W 002°43'0 0.0
2015-Jan-22 16:32N 51°30' W 002°43'0 0.0
2015-Jan-22 15:32N 51°30' W 002°43'0 0.0
2015-Jan-22 14:32N 51°30' W 002°43'0 0.0
2015-Jan-22 13:32N 51°30' W 002°43'0 0.0
2015-Jan-22 12:32N 51°30' W 002°43'0 0.0
2015-Jan-22 11:32N 51°30' W 002°43'0 0.0
2015-Jan-22 10:32N 51°30' W 002°43'0 0.0
2015-Jan-22 09:29N 51°30' W 002°43'0 0.0
2015-Jan-22 08:32N 51°30' W 002°43'0 0.0
2015-Jan-22 07:32N 51°30' W 002°43'0 0.0
2015-Jan-22 06:33N 51°30' W 002°43'1 0.8
2015-Jan-22 05:33N 51°30' W 002°44'8 8.4
2015-Jan-22 04:33N 51°27' W 002°57'1514.6
2015-Jan-22 03:33N 51°21' W 003°18'80 9.6
2015-Jan-21 19:09N 50°44' W 005°11'6 9.7
2015-Jan-21 18:33N 50°40' W 005°18'10 9.7
2015-Jan-21 17:33N 50°33' W 005°29'1010.2
2015-Jan-21 16:33N 50°27' W 005°41'  
Track history (hours):
 
Tides and Currents Weather Stations Pressure Air Temp Water Temp Dewpoint Dewpoint Depression Visibility Wind Speed Wind Dir Waves Ship Positions

Autopride

Last reported at 2015-Jan-31 11:10 UTC. Time now 2015-Jan-31 19:15 UTC.
Position N 43°19' W 001°54'.

Length 125 m; draft 4.7 m.

Type: Cargo ship. MMSI: 255801560.

Date/timePositionNaut miles runAvg speedWind from/ knotsBaromVisibWave heightAir tempDewpointWater temp
2015-Jan-31 11:10N 43°19' W 001°54'2 3.3
2015-Jan-31 10:32N 43°21' W 001°56'45515.7
2015-Jan-30 05:32N 50°28' W 005°45'1010.2
2015-Jan-30 04:33N 50°34' W 005°33'9 9.2
2015-Jan-30 03:33N 50°40' W 005°22'9 8.7
2015-Jan-30 02:33N 50°45' W 005°11'76 9.3
2015-Jan-29 18:25N 51°21' W 003°24'1315.5
2015-Jan-29 17:34N 51°24' W 003°04'1414.1
2015-Jan-29 16:33N 51°30' W 002°43'0 0.4
2015-Jan-29 15:27N 51°30' W 002°43'0 0.0
2015-Jan-29 14:33N 51°30' W 002°43'0 0.0
2015-Jan-29 13:33N 51°30' W 002°43'0 0.0
2015-Jan-29 12:33N 51°30' W 002°43'0 0.0
2015-Jan-29 11:33N 51°30' W 002°43'0 0.0
2015-Jan-29 10:33N 51°30' W 002°43'0 0.0
2015-Jan-29 09:33N 51°30' W 002°43'0 0.0
2015-Jan-29 08:33N 51°30' W 002°43'0 0.0
2015-Jan-29 07:33N 51°30' W 002°43'0 0.0
2015-Jan-29 06:33N 51°30' W 002°43'0 0.0
2015-Jan-29 05:32N 51°30' W 002°43'0 0.0
2015-Jan-29 04:32N 51°30' W 002°43'0 0.0
2015-Jan-29 03:32N 51°30' W 002°43'0 0.0
2015-Jan-29 02:32N 51°30' W 002°43'0 0.0
2015-Jan-29 01:34N 51°30' W 002°43'0 0.0
2015-Jan-29 00:34N 51°30' W 002°43'0 0.0
2015-Jan-28 23:34N 51°30' W 002°43'1 1.0
2015-Jan-28 22:34N 51°30' W 002°44'1515.2
2015-Jan-28 21:33N 51°23' W 003°05'1413.4
2015-Jan-28 20:33N 51°20' W 003°26'79 7.9
2015-Jan-28 10:33N 50°40' W 005°15'8 8.3
2015-Jan-28 09:33N 50°35' W 005°25'9 8.7
2015-Jan-28 08:33N 50°30' W 005°35'44010.7
2015-Jan-26 15:31N 43°33' W 002°06'1111.8
2015-Jan-26 14:33N 43°24' W 001°58'3 0.1
2015-Jan-25 14:18N 43°21' W 001°56'6 7.2
2015-Jan-25 13:31N 43°26' W 002°00'  
2015-Jan-23 07:33N 50°29' W 005°44'8 7.9
2015-Jan-23 06:33N 50°34' W 005°34'8 7.7
2015-Jan-23 05:33N 50°39' W 005°25'8 7.6
2015-Jan-23 04:33N 50°43' W 005°15'8 8.1
2015-Jan-23 03:33N 50°48' W 005°06'7111.1
2015-Jan-22 21:09N 51°20' W 003°25'610.2
2015-Jan-22 20:33N 51°21' W 003°15'1111.1
2015-Jan-22 19:33N 51°27' W 002°60'1110.6
2015-Jan-22 18:32N 51°30' W 002°43'0 0.4
2015-Jan-22 17:32N 51°30' W 002°43'0 0.0
2015-Jan-22 16:32N 51°30' W 002°43'0 0.0
2015-Jan-22 15:32N 51°30' W 002°43'0 0.0
2015-Jan-22 14:32N 51°30' W 002°43'0 0.0
2015-Jan-22 13:32N 51°30' W 002°43'0 0.0
2015-Jan-22 12:32N 51°30' W 002°43'0 0.0
2015-Jan-22 11:32N 51°30' W 002°43'0 0.0
2015-Jan-22 10:32N 51°30' W 002°43'0 0.0
2015-Jan-22 09:29N 51°30' W 002°43'0 0.0
2015-Jan-22 08:32N 51°30' W 002°43'0 0.0
2015-Jan-22 07:32N 51°30' W 002°43'0 0.0
2015-Jan-22 06:33N 51°30' W 002°43'1 0.8
2015-Jan-22 05:33N 51°30' W 002°44'8 8.4
2015-Jan-22 04:33N 51°27' W 002°57'1514.6
2015-Jan-22 03:33N 51°21' W 003°18'80 9.6
2015-Jan-21 19:09N 50°44' W 005°11'6 9.7
2015-Jan-21 18:33N 50°40' W 005°18'10 9.7
2015-Jan-21 17:33N 50°33' W 005°29'1010.2
2015-Jan-21 16:33N 50°27' W 005°41'  

Dump ship's entire track history